Briefing drone pour Bourg-de-peage

Rechercher une autre localisation

Conditions de vol :


Nous sommes le : Jeudi 09 février 2023
Il est 00:22 UTC (01:22 LT)

Lever de soleil : 06:23 UTC (07:23 LT)
Coucher de soleil : 17:24 UTC (18:24 LT)

Météo

L'essentiel des conditions de vol

VIGILANCE MÉTÉO FRANCE - Drôme (26)
Pas de vigilances particulieres
CARTE TEMSI
CARTES DES FRONTS
METAR de LFLU
LFLU 081800Z AUTO 13005KT CAVOK 04/M03 Q1030

Date d'émission: 08/02/2023
Heure d'émission: 18:00 UTC
Vent: 130° pour 5 KT (9 km/h)
Visibilité horizontale: > 10 km
Plafond : Plafond et visibilité OK (CAVOK)
Température: 4 °C
Point de rosée: -3 °C
Humidité: 60%
Pression (QNH): 1030 hPa
Prévision 24h pour Valence (10 km)
Vent : 27° pour 1 KT (5 km/h)
Temperature Maxi: 2 °C
Temperature Min: 2 °C
Humidité : 76%
Condition : Ciel dégagé



Warning: count(): Parameter must be an array or an object that implements Countable in /homepages/6/d509196549/htdocs/droneoxygene/briefing.php on line 743
WEBCAM POUR BOURG-DE-PEAGE

Réglementation

Voler en sécurité

CARTES AERONAUTIQUE 1/500.000
CARTE AZBA (Reseau basse altitude)
CARTES VAC (LFLU)
SUP AIP




Chargement des AIP...
NOTAM (BOURG-DE-PEAGE + Terrain à proximité / FIR )




Chargement des NOTAMS...
CONTACT PREFECTURE 26
Drôme (26) : [email protected]


Avertissement : Les données mises à disposition sont indicatives. Oxygène Drone ne pourra être tenu responsable de dégâts causés aux biens et aux personnes.